首页
METAR-TAF:

METAR-TAF

机场 :

Bleibler Ranch Aerodrome

克林顿, 不列颠哥伦比亚, 加拿大

纬度: 51-15-59N, 经度: 121-41-05W, 海拔: 1126米

当前天气观测

该预报发布于18分钟前的21:00 UTC
风速9节,风向西转西南,有时为16节阵风,在西之间变化
温度 6°C
湿度 36%
气压 1011 hPa
能見度: 14.5公里
多云层高于6000英尺
多云层高于8800英尺

METAR: CYIN 182100Z AUTO 25009G16KT 180V270 9SM BKN060 BKN088 06/M08 A2985 RMK SLP124 DENSITY ALT 3700FT

时间: 14:18 (21:18 UTC)


TAF: 丢失

超过4000个机场的气象观测和天气预报(METAR&TAF报告)。

可查询的气象台以黄色和红色小点在地图上表示。

将鼠标移到小点上方,可查看气象台名称。

然后点击查看天气观测和预报。

如需切换地图:点击带黑十字的绿色按钮放大地图;点击带横线的绿色按钮缩小地图;或者点击绿色箭头查看邻近地区的地图。


METAR-TAF: